sensor_id;sensor_type;location;lat;lon;timestamp;temperature;humidity
12520;DHT22;6325;49.540;8.364;2023-04-01T00:01:11;11.60;99.90
12520;DHT22;6325;49.540;8.364;2023-04-01T00:03:40;11.60;99.90
12520;DHT22;6325;49.540;8.364;2023-04-01T00:06:08;11.40;99.90
12520;DHT22;6325;49.540;8.364;2023-04-01T00:08:35;11.20;99.90
12520;DHT22;6325;49.540;8.364;2023-04-01T00:11:02;11.60;99.90
12520;DHT22;6325;49.540;8.364;2023-04-01T00:13:30;12.20;99.90
12520;DHT22;6325;49.540;8.364;2023-04-01T00:15:57;11.60;99.90
12520;DHT22;6325;49.540;8.364;2023-04-01T00:18:25;11.60;99.90
12520;DHT22;6325;49.540;8.364;2023-04-01T00:20:52;11.50;99.90
12520;DHT22;6325;49.540;8.364;2023-04-01T00:23:20;11.70;99.90
12520;DHT22;6325;49.540;8.364;2023-04-01T00:25:47;11.70;99.90
12520;DHT22;6325;49.540;8.364;2023-04-01T00:28:15;11.90;99.90
12520;DHT22;6325;49.540;8.364;2023-04-01T00:30:43;11.00;99.90
12520;DHT22;6325;49.540;8.364;2023-04-01T00:33:11;11.60;99.90
12520;DHT22;6325;49.540;8.364;2023-04-01T00:35:38;11.40;99.90
12520;DHT22;6325;49.540;8.364;2023-04-01T00:38:05;11.60;99.90
12520;DHT22;6325;49.540;8.364;2023-04-01T00:40:33;11.40;99.90
12520;DHT22;6325;49.540;8.364;2023-04-01T00:43:00;11.50;99.90
12520;DHT22;6325;49.540;8.364;2023-04-01T00:45:31;11.50;99.90
12520;DHT22;6325;49.540;8.364;2023-04-01T00:48:03;11.60;99.90
12520;DHT22;6325;49.540;8.364;2023-04-01T00:50:31;11.60;99.90
12520;DHT22;6325;49.540;8.364;2023-04-01T00:53:00;11.30;99.90
12520;DHT22;6325;49.540;8.364;2023-04-01T00:55:30;11.60;99.90
12520;DHT22;6325;49.540;8.364;2023-04-01T00:57:59;11.70;99.90
12520;DHT22;6325;49.540;8.364;2023-04-01T01:00:26;11.60;99.90
12520;DHT22;6325;49.540;8.364;2023-04-01T01:02:53;12.00;99.90
12520;DHT22;6325;49.540;8.364;2023-04-01T01:05:29;11.70;99.90
12520;DHT22;6325;49.540;8.364;2023-04-01T01:08:02;12.30;99.90
12520;DHT22;6325;49.540;8.364;2023-04-01T01:10:32;11.60;99.90
12520;DHT22;6325;49.540;8.364;2023-04-01T01:13:06;12.00;99.90
12520;DHT22;6325;49.540;8.364;2023-04-01T01:15:40;11.60;99.90
12520;DHT22;6325;49.540;8.364;2023-04-01T01:18:16;11.40;99.90
12520;DHT22;6325;49.540;8.364;2023-04-01T01:21:11;11.40;99.90
12520;DHT22;6325;49.540;8.364;2023-04-01T01:26:56;11.50;99.90
12520;DHT22;6325;49.540;8.364;2023-04-01T01:35:30;11.60;99.90
12520;DHT22;6325;49.540;8.364;2023-04-01T01:38:00;11.30;99.90
12520;DHT22;6325;49.540;8.364;2023-04-01T01:40:30;11.60;99.90
12520;DHT22;6325;49.540;8.364;2023-04-01T01:43:00;11.60;99.90
12520;DHT22;6325;49.540;8.364;2023-04-01T01:45:31;11.20;99.90
12520;DHT22;6325;49.540;8.364;2023-04-01T01:48:00;12.00;99.90
12520;DHT22;6325;49.540;8.364;2023-04-01T01:50:30;11.60;99.90
12520;DHT22;6325;49.540;8.364;2023-04-01T01:53:02;11.70;99.90
12520;DHT22;6325;49.540;8.364;2023-04-01T01:55:31;11.60;99.90
12520;DHT22;6325;49.540;8.364;2023-04-01T01:58:00;11.60;99.90
12520;DHT22;6325;49.540;8.364;2023-04-01T02:00:28;11.60;99.90
12520;DHT22;6325;49.540;8.364;2023-04-01T02:02:57;11.60;99.90
12520;DHT22;6325;49.540;8.364;2023-04-01T02:05:26;11.60;99.90
12520;DHT22;6325;49.540;8.364;2023-04-01T02:08:01;11.80;99.90
12520;DHT22;6325;49.540;8.364;2023-04-01T02:10:31;11.40;99.90
12520;DHT22;6325;49.540;8.364;2023-04-01T02:13:03;11.80;99.90
12520;DHT22;6325;49.540;8.364;2023-04-01T02:15:35;11.50;99.90
12520;DHT22;6325;49.540;8.364;2023-04-01T02:18:04;12.00;99.90
12520;DHT22;6325;49.540;8.364;2023-04-01T02:20:31;11.50;99.90
12520;DHT22;6325;49.540;8.364;2023-04-01T02:23:00;11.50;99.90
12520;DHT22;6325;49.540;8.364;2023-04-01T02:25:30;11.50;99.90
12520;DHT22;6325;49.540;8.364;2023-04-01T02:28:00;11.40;99.90
12520;DHT22;6325;49.540;8.364;2023-04-01T02:30:29;11.40;99.90
12520;DHT22;6325;49.540;8.364;2023-04-01T02:32:58;11.30;99.90
12520;DHT22;6325;49.540;8.364;2023-04-01T02:35:26;11.00;99.90
12520;DHT22;6325;49.540;8.364;2023-04-01T02:37:54;11.30;99.90
12520;DHT22;6325;49.540;8.364;2023-04-01T02:40:22;11.20;99.90
12520;DHT22;6325;49.540;8.364;2023-04-01T02:42:49;11.20;99.90
12520;DHT22;6325;49.540;8.364;2023-04-01T02:45:16;11.10;99.90
12520;DHT22;6325;49.540;8.364;2023-04-01T02:47:43;11.20;99.90
12520;DHT22;6325;49.540;8.364;2023-04-01T02:50:10;10.50;99.90
12520;DHT22;6325;49.540;8.364;2023-04-01T02:52:37;11.10;99.90
12520;DHT22;6325;49.540;8.364;2023-04-01T02:55:05;11.20;99.90
12520;DHT22;6325;49.540;8.364;2023-04-01T02:57:33;11.30;99.90
12520;DHT22;6325;49.540;8.364;2023-04-01T03:00:00;11.10;99.90
12520;DHT22;6325;49.540;8.364;2023-04-01T03:02:27;11.20;99.90
12520;DHT22;6325;49.540;8.364;2023-04-01T03:04:54;10.60;99.90
12520;DHT22;6325;49.540;8.364;2023-04-01T03:07:20;11.40;99.90
12520;DHT22;6325;49.540;8.364;2023-04-01T03:09:47;10.50;99.90
12520;DHT22;6325;49.540;8.364;2023-04-01T03:12:14;11.00;99.90
12520;DHT22;6325;49.540;8.364;2023-04-01T03:14:42;11.70;99.90
12520;DHT22;6325;49.540;8.364;2023-04-01T03:17:09;11.20;99.90
12520;DHT22;6325;49.540;8.364;2023-04-01T03:19:36;11.50;99.90
12520;DHT22;6325;49.540;8.364;2023-04-01T03:22:02;11.20;99.90
12520;DHT22;6325;49.540;8.364;2023-04-01T03:24:29;11.10;99.90
12520;DHT22;6325;49.540;8.364;2023-04-01T03:26:56;11.10;99.90
12520;DHT22;6325;49.540;8.364;2023-04-01T03:29:23;11.20;99.90
12520;DHT22;6325;49.540;8.364;2023-04-01T03:31:51;11.30;99.90
12520;DHT22;6325;49.540;8.364;2023-04-01T03:34:18;11.30;99.90
12520;DHT22;6325;49.540;8.364;2023-04-01T03:36:47;11.40;99.90
12520;DHT22;6325;49.540;8.364;2023-04-01T03:39:14;11.80;99.90
12520;DHT22;6325;49.540;8.364;2023-04-01T03:41:44;11.30;99.90
12520;DHT22;6325;49.540;8.364;2023-04-01T03:44:11;11.20;99.90
12520;DHT22;6325;49.540;8.364;2023-04-01T03:46:38;11.60;99.90
12520;DHT22;6325;49.540;8.364;2023-04-01T03:49:08;11.50;99.90
12520;DHT22;6325;49.540;8.364;2023-04-01T03:51:37;11.30;99.90
12520;DHT22;6325;49.540;8.364;2023-04-01T03:54:04;10.90;99.90
12520;DHT22;6325;49.540;8.364;2023-04-01T03:56:31;11.20;99.90
12520;DHT22;6325;49.540;8.364;2023-04-01T03:58:58;11.20;99.90
12520;DHT22;6325;49.540;8.364;2023-04-01T04:01:27;11.10;99.90
12520;DHT22;6325;49.540;8.364;2023-04-01T04:03:55;11.30;99.90
12520;DHT22;6325;49.540;8.364;2023-04-01T04:06:24;11.20;99.90
12520;DHT22;6325;49.540;8.364;2023-04-01T04:08:50;11.50;99.90
12520;DHT22;6325;49.540;8.364;2023-04-01T04:11:18;11.20;99.90
12520;DHT22;6325;49.540;8.364;2023-04-01T04:13:45;10.90;99.90
12520;DHT22;6325;49.540;8.364;2023-04-01T04:16:13;11.30;99.90
12520;DHT22;6325;49.540;8.364;2023-04-01T04:18:40;11.20;99.90
12520;DHT22;6325;49.540;8.364;2023-04-01T04:21:10;11.10;99.90
12520;DHT22;6325;49.540;8.364;2023-04-01T04:23:39;11.10;99.90
12520;DHT22;6325;49.540;8.364;2023-04-01T04:26:07;10.80;99.90
12520;DHT22;6325;49.540;8.364;2023-04-01T04:28:34;11.20;99.90
12520;DHT22;6325;49.540;8.364;2023-04-01T04:31:02;11.20;99.90
12520;DHT22;6325;49.540;8.364;2023-04-01T04:33:30;11.20;99.90
12520;DHT22;6325;49.540;8.364;2023-04-01T04:35:59;11.20;99.90
12520;DHT22;6325;49.540;8.364;2023-04-01T04:38:26;11.80;99.90
12520;DHT22;6325;49.540;8.364;2023-04-01T04:40:55;11.10;99.90
12520;DHT22;6325;49.540;8.364;2023-04-01T04:43:22;11.30;99.90
12520;DHT22;6325;49.540;8.364;2023-04-01T04:45:49;11.90;99.90
12520;DHT22;6325;49.540;8.364;2023-04-01T04:48:16;11.10;99.90
12520;DHT22;6325;49.540;8.364;2023-04-01T04:50:46;11.40;99.90
12520;DHT22;6325;49.540;8.364;2023-04-01T04:53:14;11.40;99.90
12520;DHT22;6325;49.540;8.364;2023-04-01T04:55:43;12.00;99.90
12520;DHT22;6325;49.540;8.364;2023-04-01T04:58:11;11.50;99.90
12520;DHT22;6325;49.540;8.364;2023-04-01T05:00:39;11.20;99.90
12520;DHT22;6325;49.540;8.364;2023-04-01T05:03:07;11.30;99.90
12520;DHT22;6325;49.540;8.364;2023-04-01T05:05:34;11.20;99.90
12520;DHT22;6325;49.540;8.364;2023-04-01T05:08:01;11.20;99.90
12520;DHT22;6325;49.540;8.364;2023-04-01T05:10:28;11.40;99.90
12520;DHT22;6325;49.540;8.364;2023-04-01T05:12:56;11.10;99.90
12520;DHT22;6325;49.540;8.364;2023-04-01T05:15:24;11.30;99.90
12520;DHT22;6325;49.540;8.364;2023-04-01T05:17:51;11.40;99.90
12520;DHT22;6325;49.540;8.364;2023-04-01T05:20:17;11.10;99.90
12520;DHT22;6325;49.540;8.364;2023-04-01T05:22:44;11.30;99.90
12520;DHT22;6325;49.540;8.364;2023-04-01T05:25:11;11.50;99.90
12520;DHT22;6325;49.540;8.364;2023-04-01T05:27:38;11.70;99.90
12520;DHT22;6325;49.540;8.364;2023-04-01T05:30:06;11.30;99.90
12520;DHT22;6325;49.540;8.364;2023-04-01T05:32:35;11.40;99.90
12520;DHT22;6325;49.540;8.364;2023-04-01T05:35:02;11.30;99.90
12520;DHT22;6325;49.540;8.364;2023-04-01T05:37:29;10.90;99.90
12520;DHT22;6325;49.540;8.364;2023-04-01T05:39:55;10.90;99.90
12520;DHT22;6325;49.540;8.364;2023-04-01T05:42:24;11.20;99.90
12520;DHT22;6325;49.540;8.364;2023-04-01T05:44:51;11.30;99.90
12520;DHT22;6325;49.540;8.364;2023-04-01T05:47:18;11.00;99.90
12520;DHT22;6325;49.540;8.364;2023-04-01T05:49:46;11.30;99.90
12520;DHT22;6325;49.540;8.364;2023-04-01T05:52:13;11.20;99.90
12520;DHT22;6325;49.540;8.364;2023-04-01T05:54:41;11.40;99.90
12520;DHT22;6325;49.540;8.364;2023-04-01T05:57:08;11.60;99.90
12520;DHT22;6325;49.540;8.364;2023-04-01T05:59:35;11.20;99.90
12520;DHT22;6325;49.540;8.364;2023-04-01T06:02:02;11.80;99.90
12520;DHT22;6325;49.540;8.364;2023-04-01T06:04:34;11.70;99.90
12520;DHT22;6325;49.540;8.364;2023-04-01T06:07:13;11.20;99.90
12520;DHT22;6325;49.540;8.364;2023-04-01T06:09:41;11.30;99.90
12520;DHT22;6325;49.540;8.364;2023-04-01T06:15:13;11.50;99.90
12520;DHT22;6325;49.540;8.364;2023-04-01T06:18:04;11.60;99.90
12520;DHT22;6325;49.540;8.364;2023-04-01T06:20:42;11.20;99.90
12520;DHT22;6325;49.540;8.364;2023-04-01T06:23:33;11.30;99.90
12520;DHT22;6325;49.540;8.364;2023-04-01T06:26:12;11.00;99.90
12520;DHT22;6325;49.540;8.364;2023-04-01T06:28:53;11.20;99.90
12520;DHT22;6325;49.540;8.364;2023-04-01T06:31:38;11.00;99.90
12520;DHT22;6325;49.540;8.364;2023-04-01T06:34:26;11.10;99.90
12520;DHT22;6325;49.540;8.364;2023-04-01T06:43:04;11.10;99.90
12520;DHT22;6325;49.540;8.364;2023-04-01T06:45:40;11.40;99.90
12520;DHT22;6325;49.540;8.364;2023-04-01T06:48:20;11.30;99.90
12520;DHT22;6325;49.540;8.364;2023-04-01T06:50:56;11.50;99.90
12520;DHT22;6325;49.540;8.364;2023-04-01T06:53:32;11.50;99.90
12520;DHT22;6325;49.540;8.364;2023-04-01T06:56:05;11.50;99.90
12520;DHT22;6325;49.540;8.364;2023-04-01T06:58:38;12.00;99.90
12520;DHT22;6325;49.540;8.364;2023-04-01T07:01:08;11.50;99.90
12520;DHT22;6325;49.540;8.364;2023-04-01T07:03:40;11.50;99.90
12520;DHT22;6325;49.540;8.364;2023-04-01T07:06:11;11.80;99.90
12520;DHT22;6325;49.540;8.364;2023-04-01T07:08:40;11.60;99.90
12520;DHT22;6325;49.540;8.364;2023-04-01T07:11:10;12.10;99.90
12520;DHT22;6325;49.540;8.364;2023-04-01T07:13:44;12.10;99.90
12520;DHT22;6325;49.540;8.364;2023-04-01T07:16:15;11.60;99.90
12520;DHT22;6325;49.540;8.364;2023-04-01T07:18:47;11.70;99.90
12520;DHT22;6325;49.540;8.364;2023-04-01T07:21:23;11.50;99.90
12520;DHT22;6325;49.540;8.364;2023-04-01T07:23:53;11.70;99.90
12520;DHT22;6325;49.540;8.364;2023-04-01T07:26:23;11.20;99.90
12520;DHT22;6325;49.540;8.364;2023-04-01T07:28:53;11.60;99.90
12520;DHT22;6325;49.540;8.364;2023-04-01T07:31:29;11.80;99.90
12520;DHT22;6325;49.540;8.364;2023-04-01T07:34:03;11.90;99.90
12520;DHT22;6325;49.540;8.364;2023-04-01T07:36:38;11.90;99.90
12520;DHT22;6325;49.540;8.364;2023-04-01T07:39:15;11.70;99.90
12520;DHT22;6325;49.540;8.364;2023-04-01T07:41:49;11.90;99.90
12520;DHT22;6325;49.540;8.364;2023-04-01T07:44:25;12.10;99.90
12520;DHT22;6325;49.540;8.364;2023-04-01T07:47:03;12.30;99.90
12520;DHT22;6325;49.540;8.364;2023-04-01T07:49:39;12.90;99.90
12520;DHT22;6325;49.540;8.364;2023-04-01T07:52:13;11.90;99.90
12520;DHT22;6325;49.540;8.364;2023-04-01T07:54:49;12.50;99.90
12520;DHT22;6325;49.540;8.364;2023-04-01T07:57:20;12.60;99.90
12520;DHT22;6325;49.540;8.364;2023-04-01T07:59:56;12.40;99.90
12520;DHT22;6325;49.540;8.364;2023-04-01T08:02:32;13.10;99.90
12520;DHT22;6325;49.540;8.364;2023-04-01T08:05:09;12.40;99.90
12520;DHT22;6325;49.540;8.364;2023-04-01T08:07:45;12.40;99.90
12520;DHT22;6325;49.540;8.364;2023-04-01T08:10:20;11.70;99.90
12520;DHT22;6325;49.540;8.364;2023-04-01T08:12:58;12.30;99.90
12520;DHT22;6325;49.540;8.364;2023-04-01T08:15:33;12.40;99.90
12520;DHT22;6325;49.540;8.364;2023-04-01T08:18:14;12.50;99.90
12520;DHT22;6325;49.540;8.364;2023-04-01T08:20:47;12.70;99.90
12520;DHT22;6325;49.540;8.364;2023-04-01T08:23:17;12.40;99.90
12520;DHT22;6325;49.540;8.364;2023-04-01T08:25:50;11.80;99.90
12520;DHT22;6325;49.540;8.364;2023-04-01T08:28:23;12.10;99.90
12520;DHT22;6325;49.540;8.364;2023-04-01T08:30:55;12.80;99.90
12520;DHT22;6325;49.540;8.364;2023-04-01T08:33:25;12.50;99.90
12520;DHT22;6325;49.540;8.364;2023-04-01T08:35:56;12.30;99.90
12520;DHT22;6325;49.540;8.364;2023-04-01T08:38:28;13.00;99.90
12520;DHT22;6325;49.540;8.364;2023-04-01T08:41:15;12.50;99.90
12520;DHT22;6325;49.540;8.364;2023-04-01T08:44:04;12.80;99.90
12520;DHT22;6325;49.540;8.364;2023-04-01T08:46:54;12.00;99.90
12520;DHT22;6325;49.540;8.364;2023-04-01T08:49:43;13.10;99.90
12520;DHT22;6325;49.540;8.364;2023-04-01T08:52:22;13.00;99.90
12520;DHT22;6325;49.540;8.364;2023-04-01T08:55:21;12.90;99.90
12520;DHT22;6325;49.540;8.364;2023-04-01T08:58:01;12.90;99.90
12520;DHT22;6325;49.540;8.364;2023-04-01T09:00:33;13.50;99.90
12520;DHT22;6325;49.540;8.364;2023-04-01T09:03:23;12.80;99.90
12520;DHT22;6325;49.540;8.364;2023-04-01T09:06:29;12.60;99.90
12520;DHT22;6325;49.540;8.364;2023-04-01T09:09:23;12.90;99.90
12520;DHT22;6325;49.540;8.364;2023-04-01T09:12:09;13.00;99.90
12520;DHT22;6325;49.540;8.364;2023-04-01T09:15:02;13.20;99.90
12520;DHT22;6325;49.540;8.364;2023-04-01T09:17:51;13.00;99.90
12520;DHT22;6325;49.540;8.364;2023-04-01T09:20:42;13.00;99.90
12520;DHT22;6325;49.540;8.364;2023-04-01T09:23:31;13.40;99.90
12520;DHT22;6325;49.540;8.364;2023-04-01T09:26:12;13.40;99.90
12520;DHT22;6325;49.540;8.364;2023-04-01T09:28:51;12.80;99.90
12520;DHT22;6325;49.540;8.364;2023-04-01T09:31:47;13.00;99.90
12520;DHT22;6325;49.540;8.364;2023-04-01T09:34:26;13.00;99.90
12520;DHT22;6325;49.540;8.364;2023-04-01T09:37:15;13.10;99.90
12520;DHT22;6325;49.540;8.364;2023-04-01T09:39:52;13.40;99.90
12520;DHT22;6325;49.540;8.364;2023-04-01T09:48:44;13.10;99.90
12520;DHT22;6325;49.540;8.364;2023-04-01T09:51:26;13.90;99.90
12520;DHT22;6325;49.540;8.364;2023-04-01T09:54:08;13.30;99.90
12520;DHT22;6325;49.540;8.364;2023-04-01T09:57:09;13.30;99.90
12520;DHT22;6325;49.540;8.364;2023-04-01T10:00:20;13.40;99.90
12520;DHT22;6325;49.540;8.364;2023-04-01T10:03:18;13.10;99.90
12520;DHT22;6325;49.540;8.364;2023-04-01T10:06:18;13.30;99.90
12520;DHT22;6325;49.540;8.364;2023-04-01T10:09:15;13.10;99.90
12520;DHT22;6325;49.540;8.364;2023-04-01T10:12:08;13.60;99.90
12520;DHT22;6325;49.540;8.364;2023-04-01T10:18:10;13.50;99.90
12520;DHT22;6325;49.540;8.364;2023-04-01T10:20:59;13.40;99.90
12520;DHT22;6325;49.540;8.364;2023-04-01T10:23:45;13.40;99.90
12520;DHT22;6325;49.540;8.364;2023-04-01T10:26:27;13.50;99.90
12520;DHT22;6325;49.540;8.364;2023-04-01T10:29:31;13.40;99.90
12520;DHT22;6325;49.540;8.364;2023-04-01T10:35:57;13.70;99.90
12520;DHT22;6325;49.540;8.364;2023-04-01T10:38:54;13.30;99.90
12520;DHT22;6325;49.540;8.364;2023-04-01T10:41:55;13.30;99.90
12520;DHT22;6325;49.540;8.364;2023-04-01T10:47:54;13.40;99.90
12520;DHT22;6325;49.540;8.364;2023-04-01T10:51:04;13.50;99.90
12520;DHT22;6325;49.540;8.364;2023-04-01T10:53:43;13.60;99.90
12520;DHT22;6325;49.540;8.364;2023-04-01T10:56:36;13.90;99.90
12520;DHT22;6325;49.540;8.364;2023-04-01T11:09:05;14.40;99.90
12520;DHT22;6325;49.540;8.364;2023-04-01T11:15:12;14.30;99.90
12520;DHT22;6325;49.540;8.364;2023-04-01T11:21:26;14.10;99.90
12520;DHT22;6325;49.540;8.364;2023-04-01T11:24:23;14.00;99.90
12520;DHT22;6325;49.540;8.364;2023-04-01T11:27:03;13.90;99.90
12520;DHT22;6325;49.540;8.364;2023-04-01T11:29:45;13.30;99.90
12520;DHT22;6325;49.540;8.364;2023-04-01T11:32:24;13.80;99.90
12520;DHT22;6325;49.540;8.364;2023-04-01T11:35:19;13.70;99.90
12520;DHT22;6325;49.540;8.364;2023-04-01T11:37:55;13.70;99.90
12520;DHT22;6325;49.540;8.364;2023-04-01T11:40:29;14.40;99.90
12520;DHT22;6325;49.540;8.364;2023-04-01T11:43:04;13.70;99.90
12520;DHT22;6325;49.540;8.364;2023-04-01T11:45:36;13.70;99.90
12520;DHT22;6325;49.540;8.364;2023-04-01T11:48:14;13.70;99.90
12520;DHT22;6325;49.540;8.364;2023-04-01T11:50:56;13.70;99.90
12520;DHT22;6325;49.540;8.364;2023-04-01T11:53:34;14.50;99.90
12520;DHT22;6325;49.540;8.364;2023-04-01T11:56:28;13.90;99.90
12520;DHT22;6325;49.540;8.364;2023-04-01T12:02:07;14.20;99.90
12520;DHT22;6325;49.540;8.364;2023-04-01T12:07:52;13.80;99.90
12520;DHT22;6325;49.540;8.364;2023-04-01T12:10:21;13.60;99.90
12520;DHT22;6325;49.540;8.364;2023-04-01T12:12:59;14.00;99.90
12520;DHT22;6325;49.540;8.364;2023-04-01T12:15:36;13.50;99.90
12520;DHT22;6325;49.540;8.364;2023-04-01T12:18:16;14.30;99.90
12520;DHT22;6325;49.540;8.364;2023-04-01T12:20:50;13.30;99.90
12520;DHT22;6325;49.540;8.364;2023-04-01T12:26:39;14.00;99.90
12520;DHT22;6325;49.540;8.364;2023-04-01T12:29:27;14.20;99.90
12520;DHT22;6325;49.540;8.364;2023-04-01T12:32:14;14.30;99.90
12520;DHT22;6325;49.540;8.364;2023-04-01T12:34:52;14.00;99.90
12520;DHT22;6325;49.540;8.364;2023-04-01T12:37:29;13.50;99.90
12520;DHT22;6325;49.540;8.364;2023-04-01T12:40:16;14.00;99.90
12520;DHT22;6325;49.540;8.364;2023-04-01T12:42:55;14.20;99.90
12520;DHT22;6325;49.540;8.364;2023-04-01T12:45:29;14.40;99.90
12520;DHT22;6325;49.540;8.364;2023-04-01T12:51:04;14.00;99.90
12520;DHT22;6325;49.540;8.364;2023-04-01T12:53:44;14.50;99.90
12520;DHT22;6325;49.540;8.364;2023-04-01T12:56:23;14.50;99.90
12520;DHT22;6325;49.540;8.364;2023-04-01T12:59:24;15.00;99.90
12520;DHT22;6325;49.540;8.364;2023-04-01T13:02:06;14.30;99.90
12520;DHT22;6325;49.540;8.364;2023-04-01T13:04:56;14.20;99.90
12520;DHT22;6325;49.540;8.364;2023-04-01T13:07:52;14.20;99.90
12520;DHT22;6325;49.540;8.364;2023-04-01T13:10:37;14.60;99.90
12520;DHT22;6325;49.540;8.364;2023-04-01T13:13:22;14.00;99.90
12520;DHT22;6325;49.540;8.364;2023-04-01T13:15:52;13.90;99.90
12520;DHT22;6325;49.540;8.364;2023-04-01T13:18:29;13.70;99.90
12520;DHT22;6325;49.540;8.364;2023-04-01T13:21:04;13.80;99.90
12520;DHT22;6325;49.540;8.364;2023-04-01T13:23:48;13.30;99.90
12520;DHT22;6325;49.540;8.364;2023-04-01T13:26:22;14.40;99.90
12520;DHT22;6325;49.540;8.364;2023-04-01T13:28:53;13.70;99.90
12520;DHT22;6325;49.540;8.364;2023-04-01T13:31:38;13.50;99.90
12520;DHT22;6325;49.540;8.364;2023-04-01T13:34:20;13.40;99.90
12520;DHT22;6325;49.540;8.364;2023-04-01T13:36:57;13.80;99.90
12520;DHT22;6325;49.540;8.364;2023-04-01T13:39:41;13.50;99.90
12520;DHT22;6325;49.540;8.364;2023-04-01T13:42:17;13.40;99.90
12520;DHT22;6325;49.540;8.364;2023-04-01T13:44:49;14.20;99.90
12520;DHT22;6325;49.540;8.364;2023-04-01T13:47:51;13.70;99.90
12520;DHT22;6325;49.540;8.364;2023-04-01T13:56:29;14.40;99.90
12520;DHT22;6325;49.540;8.364;2023-04-01T13:59:15;13.80;99.90
12520;DHT22;6325;49.540;8.364;2023-04-01T14:01:49;13.80;99.90
12520;DHT22;6325;49.540;8.364;2023-04-01T14:04:42;13.30;99.90
12520;DHT22;6325;49.540;8.364;2023-04-01T14:07:22;13.60;99.90
12520;DHT22;6325;49.540;8.364;2023-04-01T14:10:05;13.60;99.90
12520;DHT22;6325;49.540;8.364;2023-04-01T14:12:40;13.70;99.90
12520;DHT22;6325;49.540;8.364;2023-04-01T14:15:25;13.80;99.90
12520;DHT22;6325;49.540;8.364;2023-04-01T14:18:16;13.70;99.90
12520;DHT22;6325;49.540;8.364;2023-04-01T14:20:52;13.70;99.90
12520;DHT22;6325;49.540;8.364;2023-04-01T14:23:50;13.80;99.90
12520;DHT22;6325;49.540;8.364;2023-04-01T14:26:50;13.50;99.90
12520;DHT22;6325;49.540;8.364;2023-04-01T14:29:28;13.60;99.90
12520;DHT22;6325;49.540;8.364;2023-04-01T14:32:10;13.60;99.90
12520;DHT22;6325;49.540;8.364;2023-04-01T14:34:53;13.70;99.90
12520;DHT22;6325;49.540;8.364;2023-04-01T14:37:35;13.60;99.90
12520;DHT22;6325;49.540;8.364;2023-04-01T14:40:21;13.20;99.90
12520;DHT22;6325;49.540;8.364;2023-04-01T14:43:08;13.00;99.90
12520;DHT22;6325;49.540;8.364;2023-04-01T14:48:36;13.60;99.90
12520;DHT22;6325;49.540;8.364;2023-04-01T14:51:09;14.20;99.90
12520;DHT22;6325;49.540;8.364;2023-04-01T14:53:41;14.20;99.90
12520;DHT22;6325;49.540;8.364;2023-04-01T14:56:11;13.50;99.90
12520;DHT22;6325;49.540;8.364;2023-04-01T14:58:44;13.90;99.90
12520;DHT22;6325;49.540;8.364;2023-04-01T15:01:24;13.50;99.90
12520;DHT22;6325;49.540;8.364;2023-04-01T15:04:04;13.10;99.90
12520;DHT22;6325;49.540;8.364;2023-04-01T15:06:54;13.70;99.90
12520;DHT22;6325;49.540;8.364;2023-04-01T15:09:27;14.20;99.90
12520;DHT22;6325;49.540;8.364;2023-04-01T15:12:05;13.80;99.90
12520;DHT22;6325;49.540;8.364;2023-04-01T15:14:52;13.90;99.90
12520;DHT22;6325;49.540;8.364;2023-04-01T15:17:34;14.10;99.90
12520;DHT22;6325;49.540;8.364;2023-04-01T15:20:24;13.50;99.90
12520;DHT22;6325;49.540;8.364;2023-04-01T15:23:13;13.30;99.90
12520;DHT22;6325;49.540;8.364;2023-04-01T15:25:53;14.30;99.90
12520;DHT22;6325;49.540;8.364;2023-04-01T15:28:28;13.60;99.90
12520;DHT22;6325;49.540;8.364;2023-04-01T15:31:03;13.90;99.90
12520;DHT22;6325;49.540;8.364;2023-04-01T15:33:42;13.60;99.90
12520;DHT22;6325;49.540;8.364;2023-04-01T15:36:25;13.60;99.90
12520;DHT22;6325;49.540;8.364;2023-04-01T15:38:55;13.50;99.90
12520;DHT22;6325;49.540;8.364;2023-04-01T15:41:33;13.30;99.90
12520;DHT22;6325;49.540;8.364;2023-04-01T15:44:02;13.50;99.90
12520;DHT22;6325;49.540;8.364;2023-04-01T15:46:46;14.00;99.90
12520;DHT22;6325;49.540;8.364;2023-04-01T15:49:30;13.50;99.90
12520;DHT22;6325;49.540;8.364;2023-04-01T15:52:07;13.50;99.90
12520;DHT22;6325;49.540;8.364;2023-04-01T15:55:01;13.40;99.90
12520;DHT22;6325;49.540;8.364;2023-04-01T15:57:42;13.50;99.90
12520;DHT22;6325;49.540;8.364;2023-04-01T16:00:23;13.40;99.90
12520;DHT22;6325;49.540;8.364;2023-04-01T16:05:45;13.40;99.90
12520;DHT22;6325;49.540;8.364;2023-04-01T16:08:35;13.60;99.90
12520;DHT22;6325;49.540;8.364;2023-04-01T16:11:15;13.20;99.90
12520;DHT22;6325;49.540;8.364;2023-04-01T16:13:59;13.40;99.90
12520;DHT22;6325;49.540;8.364;2023-04-01T16:16:40;13.40;99.90
12520;DHT22;6325;49.540;8.364;2023-04-01T16:19:37;13.40;99.90
12520;DHT22;6325;49.540;8.364;2023-04-01T16:22:09;13.40;99.90
12520;DHT22;6325;49.540;8.364;2023-04-01T16:24:45;13.30;99.90
12520;DHT22;6325;49.540;8.364;2023-04-01T16:27:18;13.40;99.90
12520;DHT22;6325;49.540;8.364;2023-04-01T16:29:55;13.30;99.90
12520;DHT22;6325;49.540;8.364;2023-04-01T16:32:31;13.20;99.90
12520;DHT22;6325;49.540;8.364;2023-04-01T16:35:20;13.20;99.90
12520;DHT22;6325;49.540;8.364;2023-04-01T16:37:51;12.80;99.90
12520;DHT22;6325;49.540;8.364;2023-04-01T16:40:33;13.60;99.90
12520;DHT22;6325;49.540;8.364;2023-04-01T16:43:10;13.50;99.90
12520;DHT22;6325;49.540;8.364;2023-04-01T16:45:41;13.40;99.90
12520;DHT22;6325;49.540;8.364;2023-04-01T16:48:13;13.20;99.90
12520;DHT22;6325;49.540;8.364;2023-04-01T16:50:52;13.30;99.90
12520;DHT22;6325;49.540;8.364;2023-04-01T16:53:34;13.20;99.90
12520;DHT22;6325;49.540;8.364;2023-04-01T16:56:12;12.60;99.90
12520;DHT22;6325;49.540;8.364;2023-04-01T16:58:42;13.40;99.90
12520;DHT22;6325;49.540;8.364;2023-04-01T17:01:13;13.10;99.90
12520;DHT22;6325;49.540;8.364;2023-04-01T17:03:45;12.80;99.90
12520;DHT22;6325;49.540;8.364;2023-04-01T17:06:20;13.20;99.90
12520;DHT22;6325;49.540;8.364;2023-04-01T17:09:06;13.20;99.90
12520;DHT22;6325;49.540;8.364;2023-04-01T17:11:40;13.30;99.90
12520;DHT22;6325;49.540;8.364;2023-04-01T17:14:16;13.20;99.90
12520;DHT22;6325;49.540;8.364;2023-04-01T17:17:01;13.30;99.90
12520;DHT22;6325;49.540;8.364;2023-04-01T17:19:47;13.20;99.90
12520;DHT22;6325;49.540;8.364;2023-04-01T17:22:25;13.50;99.90
12520;DHT22;6325;49.540;8.364;2023-04-01T17:27:51;12.60;99.90
12520;DHT22;6325;49.540;8.364;2023-04-01T17:30:25;12.80;99.90
12520;DHT22;6325;49.540;8.364;2023-04-01T17:35:57;13.20;99.90
12520;DHT22;6325;49.540;8.364;2023-04-01T17:38:47;12.60;99.90
12520;DHT22;6325;49.540;8.364;2023-04-01T17:41:24;12.80;99.90
12520;DHT22;6325;49.540;8.364;2023-04-01T17:44:01;12.80;99.90
12520;DHT22;6325;49.540;8.364;2023-04-01T17:46:38;12.90;99.90
12520;DHT22;6325;49.540;8.364;2023-04-01T17:49:21;12.60;99.90
12520;DHT22;6325;49.540;8.364;2023-04-01T17:51:57;12.70;99.90
12520;DHT22;6325;49.540;8.364;2023-04-01T17:54:30;12.70;99.90
12520;DHT22;6325;49.540;8.364;2023-04-01T17:57:14;12.70;99.90
12520;DHT22;6325;49.540;8.364;2023-04-01T17:59:57;12.70;99.90
12520;DHT22;6325;49.540;8.364;2023-04-01T18:02:33;12.30;99.90